createdAt,value
2023-01-09T00:00:29.327Z,13.02
2023-01-09T00:02:56.847Z,13.27
2023-01-09T00:05:24.058Z,13.33
2023-01-09T00:07:51.192Z,13.43
2023-01-09T00:10:18.847Z,13.42
2023-01-09T00:12:46.062Z,13.00
2023-01-09T00:15:13.461Z,13.31
2023-01-09T00:17:41.363Z,13.16
2023-01-09T00:20:09.798Z,13.03
2023-01-09T00:22:37.550Z,13.14
2023-01-09T00:25:05.475Z,12.91
2023-01-09T00:27:35.925Z,12.77
2023-01-09T00:30:03.505Z,12.90
2023-01-09T00:32:32.235Z,12.72
2023-01-09T00:34:59.467Z,12.78
2023-01-09T00:37:26.725Z,12.79
2023-01-09T00:39:54.150Z,13.19
2023-01-09T00:42:22.585Z,12.81
2023-01-09T00:44:51.139Z,13.10
2023-01-09T00:47:51.168Z,13.21
2023-01-09T00:50:22.608Z,13.13
2023-01-09T00:52:50.529Z,12.99
2023-01-09T00:55:17.720Z,13.08
2023-01-09T00:57:44.916Z,12.97
2023-01-09T01:00:12.854Z,13.09
2023-01-09T01:02:40.074Z,12.67
2023-01-09T01:05:26.392Z,12.34
2023-01-09T01:07:53.857Z,12.58
2023-01-09T01:10:22.365Z,12.71
2023-01-09T01:12:49.861Z,12.49
2023-01-09T01:15:17.536Z,12.95
2023-01-09T01:17:45.041Z,12.82
2023-01-09T01:20:13.680Z,12.96
2023-01-09T01:22:44.125Z,12.54
2023-01-09T01:25:12.134Z,12.68
2023-01-09T01:27:39.316Z,12.75
2023-01-09T01:30:07.332Z,12.97
2023-01-09T01:32:34.575Z,12.64
2023-01-09T01:35:01.782Z,12.85
2023-01-09T01:37:29.301Z,13.00
2023-01-09T01:39:56.542Z,12.55
2023-01-09T01:42:23.704Z,12.89
2023-01-09T01:45:10.017Z,12.15
2023-01-09T01:47:37.218Z,12.61
2023-01-09T01:50:07.634Z,12.68
2023-01-09T01:52:34.905Z,12.35
2023-01-09T01:55:02.489Z,12.40
2023-01-09T01:57:30.407Z,12.29
2023-01-09T01:59:57.789Z,12.59
2023-01-09T02:02:25.908Z,12.91
2023-01-09T02:04:53.810Z,12.21
2023-01-09T02:07:21.274Z,12.08
2023-01-09T02:09:48.495Z,12.57
2023-01-09T02:12:17.193Z,13.13
2023-01-09T02:14:44.734Z,13.24
2023-01-09T02:17:41.306Z,12.92
2023-01-09T02:20:19.563Z,12.86
2023-01-09T02:22:55.954Z,12.18
2023-01-09T02:25:35.375Z,11.26
2023-01-09T02:28:02.657Z,11.01
2023-01-09T02:30:31.250Z,11.43
2023-01-09T02:33:01.506Z,11.52
2023-01-09T02:35:34.946Z,11.85
2023-01-09T02:38:21.289Z,12.18
2023-01-09T02:40:57.555Z,11.97
2023-01-09T02:43:25.220Z,11.54
2023-01-09T02:45:52.612Z,12.31
2023-01-09T02:48:19.866Z,12.07
2023-01-09T02:50:59.410Z,11.84
2023-01-09T02:53:36.764Z,12.58
2023-01-09T02:56:04.111Z,12.88
2023-01-09T02:58:33.427Z,12.29
2023-01-09T03:01:12.921Z,12.41
2023-01-09T03:03:41.753Z,12.87
2023-01-09T03:06:15.191Z,12.55
2023-01-09T03:08:46.590Z,11.96
2023-01-09T03:11:13.964Z,12.93
2023-01-09T03:13:50.047Z,12.46
2023-01-09T03:16:24.026Z,12.68
2023-01-09T03:18:51.214Z,12.87
2023-01-09T03:21:18.662Z,12.68
2023-01-09T03:23:50.532Z,13.14
2023-01-09T03:26:18.071Z,12.81
2023-01-09T03:28:45.628Z,13.12
2023-01-09T03:31:12.831Z,12.54
2023-01-09T03:33:40.168Z,11.04
2023-01-09T03:36:08.133Z,11.75
2023-01-09T03:38:35.496Z,12.21
2023-01-09T03:41:02.743Z,11.88
2023-01-09T03:43:30.756Z,11.65
2023-01-09T03:45:57.981Z,11.70
2023-01-09T03:48:25.289Z,11.52
2023-01-09T03:50:53.187Z,12.39
2023-01-09T03:53:20.825Z,12.15
2023-01-09T03:55:48.772Z,11.68
2023-01-09T03:58:16.627Z,12.62
2023-01-09T04:00:46.000Z,11.85
2023-01-09T04:03:13.503Z,11.98
2023-01-09T04:05:40.645Z,12.29
2023-01-09T04:08:07.786Z,12.74
2023-01-09T04:10:35.303Z,12.99
2023-01-09T04:13:02.799Z,12.39
2023-01-09T04:15:29.985Z,13.20
2023-01-09T04:17:57.391Z,13.36
2023-01-09T04:20:24.561Z,13.38
2023-01-09T04:22:51.752Z,13.43
2023-01-09T04:25:19.174Z,13.46
2023-01-09T04:27:47.234Z,13.43
2023-01-09T04:30:15.845Z,13.40
2023-01-09T04:32:43.347Z,13.07
2023-01-09T04:35:10.861Z,13.42
2023-01-09T04:37:38.029Z,13.39
2023-01-09T04:40:08.839Z,13.24
2023-01-09T04:42:39.326Z,13.56
2023-01-09T04:45:07.712Z,12.78
2023-01-09T04:47:34.879Z,12.67
2023-01-09T04:50:02.034Z,12.84
2023-01-09T04:52:29.599Z,12.92
2023-01-09T04:54:56.789Z,13.09
2023-01-09T04:57:24.044Z,13.45
2023-01-09T04:59:52.267Z,13.18
2023-01-09T05:02:20.073Z,12.76
2023-01-09T05:04:47.241Z,12.26
2023-01-09T05:07:14.760Z,12.68
2023-01-09T05:09:42.015Z,12.31
2023-01-09T05:12:09.162Z,12.90
2023-01-09T05:14:36.869Z,12.95
2023-01-09T05:17:04.050Z,12.28
2023-01-09T05:19:31.283Z,11.42
2023-01-09T05:21:58.679Z,11.36
2023-01-09T05:24:25.861Z,11.02
2023-01-09T05:26:53.062Z,11.32
2023-01-09T05:29:20.544Z,10.55
2023-01-09T05:31:47.857Z,10.87
2023-01-09T05:34:15.095Z,11.40
2023-01-09T05:36:42.542Z,11.11
2023-01-09T05:39:09.856Z,12.36
2023-01-09T05:41:37.025Z,12.65
2023-01-09T05:44:04.994Z,13.12
2023-01-09T05:46:32.333Z,12.08
2023-01-09T05:48:59.577Z,12.67
2023-01-09T05:51:27.007Z,11.93
2023-01-09T05:53:54.190Z,11.37
2023-01-09T05:56:21.458Z,10.89
2023-01-09T05:58:48.911Z,10.79
2023-01-09T06:01:16.349Z,10.62
2023-01-09T06:03:44.127Z,11.61
2023-01-09T06:06:11.330Z,12.19
2023-01-09T06:08:38.526Z,10.90
2023-01-09T06:11:06.039Z,12.09
2023-01-09T06:13:33.160Z,12.20
2023-01-09T06:16:00.477Z,11.22
2023-01-09T06:18:27.927Z,11.82
2023-01-09T06:20:55.132Z,10.81
2023-01-09T06:23:22.260Z,10.71
2023-01-09T06:25:49.729Z,11.66
2023-01-09T06:28:16.925Z,10.77
2023-01-09T06:30:44.147Z,11.06
2023-01-09T06:33:11.663Z,11.34
2023-01-09T06:35:38.814Z,10.91
2023-01-09T06:38:06.205Z,10.61
2023-01-09T06:40:33.746Z,10.89
2023-01-09T06:43:00.889Z,10.39
2023-01-09T06:45:28.156Z,9.65
2023-01-09T06:47:55.631Z,9.79
2023-01-09T06:50:22.822Z,10.08
2023-01-09T06:52:50.025Z,9.14
2023-01-09T06:55:17.861Z,9.75
2023-01-09T06:57:45.110Z,9.47
2023-01-09T07:00:12.499Z,9.15
2023-01-09T07:02:39.953Z,9.49
2023-01-09T07:05:08.652Z,10.61
2023-01-09T07:07:35.873Z,9.85
2023-01-09T07:10:03.306Z,10.39
2023-01-09T07:12:30.485Z,9.67
2023-01-09T07:14:57.762Z,9.14
2023-01-09T07:17:25.630Z,9.50
2023-01-09T07:19:52.768Z,9.74
2023-01-09T07:22:19.926Z,10.15
2023-01-09T07:24:47.637Z,9.54
2023-01-09T07:27:15.513Z,10.59
2023-01-09T07:29:42.682Z,10.69
2023-01-09T07:32:10.199Z,11.22
2023-01-09T07:34:37.389Z,11.29
2023-01-09T07:37:04.683Z,10.99
2023-01-09T07:39:32.190Z,9.79
2023-01-09T07:41:59.355Z,11.14
2023-01-09T07:44:26.607Z,10.66
2023-01-09T07:46:54.137Z,10.22
2023-01-09T07:49:21.406Z,10.69
2023-01-09T07:51:48.716Z,10.13
2023-01-09T07:54:16.418Z,9.39
2023-01-09T07:56:43.669Z,10.36
2023-01-09T07:59:10.849Z,10.88
2023-01-09T08:01:38.423Z,10.04
2023-01-09T08:04:05.954Z,10.96
2023-01-09T08:06:33.324Z,9.91
2023-01-09T08:09:00.547Z,8.85
2023-01-09T08:11:28.012Z,9.88
2023-01-09T08:13:55.173Z,10.37
2023-01-09T08:16:22.559Z,10.32
2023-01-09T08:18:50.139Z,9.93
2023-01-09T08:21:17.379Z,9.87
2023-01-09T08:23:45.620Z,9.51
2023-01-09T08:26:13.164Z,9.67
2023-01-09T08:28:40.329Z,9.24
2023-01-09T08:31:07.553Z,8.56
2023-01-09T08:33:35.117Z,9.79
2023-01-09T08:36:02.455Z,8.99
2023-01-09T08:38:29.644Z,9.36
2023-01-09T08:40:57.147Z,9.18
2023-01-09T08:43:43.054Z,9.70
2023-01-09T08:46:34.680Z,9.28
2023-01-09T08:49:02.004Z,9.81
2023-01-09T08:51:29.450Z,9.91
2023-01-09T08:53:56.592Z,9.43
2023-01-09T08:56:23.821Z,9.26
2023-01-09T08:58:51.284Z,10.06
2023-01-09T09:01:18.512Z,9.16
2023-01-09T09:03:45.754Z,8.42
2023-01-09T09:06:13.252Z,8.98
2023-01-09T09:08:40.463Z,9.08
2023-01-09T09:11:07.925Z,9.85
2023-01-09T09:13:35.375Z,9.37
2023-01-09T09:16:02.605Z,8.63
2023-01-09T09:18:29.808Z,9.95
2023-01-09T09:20:57.302Z,9.86
2023-01-09T09:23:24.734Z,9.76
2023-01-09T09:25:51.992Z,9.24
2023-01-09T09:28:19.451Z,8.74
2023-01-09T09:30:46.654Z,9.07
2023-01-09T09:33:13.798Z,9.50
2023-01-09T09:35:41.326Z,8.96
2023-01-09T09:38:08.522Z,8.36
2023-01-09T09:40:42.835Z,9.26
2023-01-09T09:43:39.124Z,9.37
2023-01-09T09:46:15.521Z,8.58
2023-01-09T09:48:48.723Z,10.01
2023-01-09T09:51:18.938Z,10.12
2023-01-09T09:53:49.439Z,9.73
2023-01-09T09:56:17.374Z,9.23
2023-01-09T09:58:45.844Z,9.41
2023-01-09T10:01:15.278Z,9.45
2023-01-09T10:03:52.671Z,9.46
2023-01-09T10:06:49.127Z,9.67
2023-01-09T10:09:25.675Z,10.16
2023-01-09T10:11:57.391Z,10.31
2023-01-09T10:14:24.993Z,9.76
2023-01-09T10:16:58.302Z,8.79
2023-01-09T10:19:44.263Z,9.33
2023-01-09T10:22:18.150Z,9.09
2023-01-09T10:24:51.497Z,8.55
2023-01-09T10:27:21.823Z,9.21
2023-01-09T10:29:57.845Z,10.55
2023-01-09T10:32:37.070Z,10.36
2023-01-09T10:35:13.729Z,10.00
2023-01-09T10:37:42.652Z,9.64
2023-01-09T10:40:18.423Z,8.92
2023-01-09T10:42:55.521Z,8.41
2023-01-09T10:45:22.980Z,8.96
2023-01-09T10:47:50.214Z,8.90
2023-01-09T10:50:21.650Z,8.80
2023-01-09T10:52:49.870Z,8.61
2023-01-09T10:55:19.462Z,8.28
2023-01-09T10:57:50.730Z,9.29
2023-01-09T11:00:23.722Z,8.84
2023-01-09T11:02:51.932Z,9.16
2023-01-09T11:05:20.614Z,8.77
2023-01-09T11:07:49.521Z,9.25
2023-01-09T11:10:17.441Z,9.85
2023-01-09T11:12:44.944Z,9.72
2023-01-09T11:15:23.763Z,8.83
2023-01-09T11:17:51.581Z,8.40
2023-01-09T11:20:28.606Z,8.53
2023-01-09T11:22:57.219Z,8.99
2023-01-09T11:25:25.470Z,9.04
2023-01-09T11:28:01.784Z,9.07
2023-01-09T11:30:29.880Z,9.13
2023-01-09T11:32:57.841Z,9.61
2023-01-09T11:35:34.156Z,8.62
2023-01-09T11:38:03.590Z,8.07
2023-01-09T11:40:32.327Z,8.52
2023-01-09T11:43:02.532Z,8.26
2023-01-09T11:45:30.960Z,8.82
2023-01-09T11:47:58.375Z,9.05
2023-01-09T11:50:26.577Z,8.57
2023-01-09T11:53:12.717Z,9.03
2023-01-09T11:55:42.767Z,8.45
2023-01-09T11:58:14.657Z,9.86
2023-01-09T12:00:53.883Z,10.17
2023-01-09T12:03:33.783Z,10.14
2023-01-09T12:06:10.280Z,9.30
2023-01-09T12:08:43.653Z,8.40
2023-01-09T12:11:17.162Z,8.86
2023-01-09T12:13:48.926Z,8.55
2023-01-09T12:16:19.217Z,8.22
2023-01-09T12:18:58.585Z,8.34
2023-01-09T12:21:32.049Z,8.52
2023-01-09T12:24:14.731Z,9.32
2023-01-09T12:27:04.134Z,10.06
2023-01-09T12:29:31.617Z,9.01
2023-01-09T12:32:10.973Z,8.45
2023-01-09T12:34:57.263Z,9.14
2023-01-09T12:37:43.286Z,9.03
2023-01-09T12:40:13.622Z,9.63
2023-01-09T12:42:43.794Z,9.87
2023-01-09T12:45:20.134Z,9.90
2023-01-09T12:47:48.077Z,9.89
2023-01-09T12:50:31.917Z,9.57
2023-01-09T12:53:04.485Z,9.86
2023-01-09T12:55:36.099Z,10.29
2023-01-09T12:58:06.823Z,10.27
2023-01-09T13:00:35.670Z,10.58
2023-01-09T13:03:12.879Z,10.80
2023-01-09T13:05:43.012Z,10.57
2023-01-09T13:08:28.573Z,10.79
2023-01-09T13:10:57.496Z,10.63
2023-01-09T13:13:43.685Z,10.38
2023-01-09T13:16:13.846Z,10.37
2023-01-09T13:18:44.251Z,11.00
2023-01-09T13:21:12.372Z,11.32
2023-01-09T13:23:42.310Z,11.55
2023-01-09T13:26:10.655Z,11.65
2023-01-09T13:28:41.330Z,11.70
2023-01-09T13:31:17.787Z,11.82
2023-01-09T13:33:46.053Z,12.16
2023-01-09T13:36:39.801Z,12.24
2023-01-09T13:39:07.337Z,12.23
2023-01-09T13:41:53.599Z,12.28
2023-01-09T13:44:22.257Z,11.89
2023-01-09T13:46:53.577Z,12.38
2023-01-09T13:49:36.631Z,12.48
2023-01-09T13:52:03.909Z,11.62
2023-01-09T13:54:50.067Z,12.23
2023-01-09T13:57:20.388Z,12.40
2023-01-09T13:59:50.595Z,12.27
2023-01-09T14:02:41.297Z,12.35
2023-01-09T14:05:09.661Z,11.23
2023-01-09T14:07:37.724Z,12.22
2023-01-09T14:10:06.241Z,12.24
2023-01-09T14:12:38.710Z,12.50
2023-01-09T14:15:06.045Z,12.76
2023-01-09T14:17:37.162Z,12.76
2023-01-09T14:20:08.767Z,12.82
2023-01-09T14:22:45.696Z,12.68
2023-01-09T14:25:25.234Z,12.53
2023-01-09T14:27:55.567Z,12.44
2023-01-09T14:30:25.929Z,12.23
2023-01-09T14:32:58.901Z,11.36
2023-01-09T14:35:28.054Z,11.40
2023-01-09T14:38:02.757Z,11.96
2023-01-09T14:40:29.968Z,12.06
2023-01-09T14:42:58.139Z,12.23
2023-01-09T14:45:26.199Z,12.58
2023-01-09T14:48:00.907Z,12.58
2023-01-09T14:50:41.032Z,12.56
2023-01-09T14:53:12.327Z,12.79
2023-01-09T14:55:45.864Z,13.07
2023-01-09T14:58:19.057Z,13.08
2023-01-09T15:00:51.612Z,13.08
2023-01-09T15:03:19.228Z,13.20
2023-01-09T15:05:46.756Z,12.93
2023-01-09T15:08:16.803Z,13.31
2023-01-09T15:10:45.091Z,13.31
2023-01-09T15:13:14.493Z,13.41
2023-01-09T15:15:45.926Z,13.13
2023-01-09T15:18:18.215Z,13.40
2023-01-09T15:20:45.438Z,13.41
2023-01-09T15:23:22.131Z,13.53
2023-01-09T15:25:49.652Z,13.45
2023-01-09T15:28:26.088Z,13.46
2023-01-09T15:31:04.209Z,13.56
2023-01-09T15:33:31.626Z,13.65
2023-01-09T15:36:02.760Z,13.54
2023-01-09T15:38:31.088Z,13.55
2023-01-09T15:40:59.694Z,13.61
2023-01-09T15:43:27.261Z,13.59
2023-01-09T15:45:54.485Z,13.30
2023-01-09T15:48:22.062Z,13.43
2023-01-09T15:50:50.673Z,13.39
2023-01-09T15:53:18.746Z,13.40
2023-01-09T15:55:49.490Z,13.37
2023-01-09T15:58:29.883Z,13.50
2023-01-09T16:00:58.272Z,13.23
2023-01-09T16:03:25.923Z,13.30
2023-01-09T16:05:55.289Z,13.32
2023-01-09T16:08:24.080Z,13.42
2023-01-09T16:10:52.454Z,13.22
2023-01-09T16:13:20.860Z,13.39
2023-01-09T16:15:48.057Z,13.17
2023-01-09T16:18:15.496Z,13.43
2023-01-09T16:20:42.898Z,13.44
2023-01-09T16:23:24.162Z,13.24
2023-01-09T16:26:01.457Z,13.24
2023-01-09T16:28:30.833Z,13.26
2023-01-09T16:30:59.414Z,13.20
2023-01-09T16:33:27.225Z,13.16
2023-01-09T16:35:54.602Z,12.57
2023-01-09T16:38:22.820Z,13.10
2023-01-09T16:41:18.764Z,13.24
2023-01-09T16:43:46.381Z,13.27
2023-01-09T16:46:14.352Z,13.26
2023-01-09T16:48:41.563Z,13.23
2023-01-09T16:51:16.375Z,13.11
2023-01-09T16:53:43.964Z,13.09
2023-01-09T16:56:18.707Z,13.18
2023-01-09T16:58:46.459Z,12.88
2023-01-09T17:01:15.024Z,13.04
2023-01-09T17:03:44.068Z,13.05
2023-01-09T17:06:28.589Z,13.05
2023-01-09T17:08:56.355Z,12.91
2023-01-09T17:11:32.821Z,12.92
2023-01-09T17:14:03.817Z,12.48
2023-01-09T17:16:30.994Z,12.11
2023-01-09T17:18:58.222Z,12.15
2023-01-09T17:21:26.897Z,12.47
2023-01-09T17:24:12.622Z,12.24
2023-01-09T17:26:59.870Z,12.58
2023-01-09T17:29:27.670Z,12.74
2023-01-09T17:31:55.262Z,12.42
2023-01-09T17:34:22.477Z,12.35
2023-01-09T17:36:49.783Z,11.52
2023-01-09T17:39:17.374Z,12.04
2023-01-09T17:41:44.672Z,11.84
2023-01-09T17:44:11.938Z,11.95
2023-01-09T17:46:40.485Z,11.89
2023-01-09T17:49:07.970Z,12.02
2023-01-09T17:51:35.253Z,11.75
2023-01-09T17:54:02.783Z,11.84
2023-01-09T17:56:32.506Z,11.73
2023-01-09T17:58:59.859Z,12.25
2023-01-09T18:01:27.308Z,12.49
2023-01-09T18:03:54.940Z,12.54
2023-01-09T18:06:22.362Z,12.58
2023-01-09T18:08:49.567Z,12.74
2023-01-09T18:11:18.413Z,12.73
2023-01-09T18:13:46.034Z,12.82
2023-01-09T18:16:13.928Z,12.91
2023-01-09T18:18:41.562Z,12.92
2023-01-09T18:21:09.108Z,12.90
2023-01-09T18:23:36.329Z,12.97
2023-01-09T18:26:07.181Z,12.95
2023-01-09T18:28:38.116Z,13.08
2023-01-09T18:31:06.212Z,13.05
2023-01-09T18:33:33.526Z,13.09
2023-01-09T18:36:07.523Z,13.02
2023-01-09T18:38:35.000Z,13.10
2023-01-09T18:41:02.494Z,12.90
2023-01-09T18:43:29.912Z,12.85
2023-01-09T18:45:57.481Z,12.80
2023-01-09T18:48:25.081Z,13.01
2023-01-09T18:50:52.396Z,13.10
2023-01-09T18:53:20.066Z,13.06
2023-01-09T18:55:47.550Z,12.55
2023-01-09T18:58:16.470Z,12.66
2023-01-09T19:00:46.002Z,11.29
2023-01-09T19:03:13.824Z,12.19
2023-01-09T19:05:41.167Z,12.18
2023-01-09T19:08:09.942Z,11.74
2023-01-09T19:10:37.289Z,12.14
2023-01-09T19:13:05.146Z,12.13
2023-01-09T19:15:34.720Z,12.15
2023-01-09T19:18:02.002Z,11.54
2023-01-09T19:20:29.814Z,11.15
2023-01-09T19:22:57.370Z,11.26
2023-01-09T19:25:24.964Z,10.86
2023-01-09T19:27:54.910Z,11.32
2023-01-09T19:30:22.614Z,11.42
2023-01-09T19:32:49.971Z,11.83
2023-01-09T19:35:17.673Z,11.56
2023-01-09T19:37:45.363Z,11.34
2023-01-09T19:40:12.865Z,12.03
2023-01-09T19:42:40.085Z,12.02
2023-01-09T19:45:08.075Z,11.93
2023-01-09T19:47:38.106Z,12.17
2023-01-09T19:50:05.732Z,11.81
2023-01-09T19:52:33.431Z,11.53
2023-01-09T19:55:00.647Z,11.14
2023-01-09T19:57:27.920Z,11.13
2023-01-09T19:59:55.406Z,11.30
2023-01-09T20:02:22.630Z,11.34
2023-01-09T20:04:50.180Z,11.59
2023-01-09T20:07:17.467Z,11.16
2023-01-09T20:09:44.900Z,11.50
2023-01-09T20:12:12.508Z,10.69
2023-01-09T20:14:39.760Z,10.87
2023-01-09T20:17:06.977Z,11.24
2023-01-09T20:19:35.183Z,11.27
2023-01-09T20:22:02.397Z,11.48
2023-01-09T20:24:29.761Z,11.13
2023-01-09T20:26:57.362Z,10.66
2023-01-09T20:29:24.857Z,10.87
2023-01-09T20:31:52.546Z,10.35
2023-01-09T20:34:20.227Z,10.10
2023-01-09T20:36:47.476Z,9.72
2023-01-09T20:39:14.956Z,10.19
2023-01-09T20:41:42.529Z,9.61
2023-01-09T20:44:11.625Z,9.92
2023-01-09T20:46:40.141Z,9.85
2023-01-09T20:49:09.649Z,9.97
2023-01-09T20:51:40.163Z,10.14
2023-01-09T20:54:07.648Z,9.93
2023-01-09T20:56:36.270Z,9.99
2023-01-09T20:59:04.270Z,10.01
2023-01-09T21:01:32.048Z,9.18
2023-01-09T21:03:59.344Z,9.86
2023-01-09T21:06:27.223Z,9.85
2023-01-09T21:08:54.738Z,10.14
2023-01-09T21:11:22.158Z,9.92
2023-01-09T21:13:49.595Z,10.36
2023-01-09T21:16:19.913Z,9.67
2023-01-09T21:18:47.520Z,9.68
2023-01-09T21:21:15.716Z,9.43
2023-01-09T21:23:46.454Z,9.90
2023-01-09T21:26:13.919Z,9.99
2023-01-09T21:28:50.665Z,9.97
2023-01-09T21:31:19.470Z,9.26
2023-01-09T21:33:47.042Z,9.59
2023-01-09T21:36:14.932Z,10.30
2023-01-09T21:38:42.469Z,10.29
2023-01-09T21:41:28.059Z,10.42
2023-01-09T21:44:14.557Z,10.69
2023-01-09T21:46:55.979Z,10.38
2023-01-09T21:49:25.494Z,11.02
2023-01-09T21:51:53.473Z,10.80
2023-01-09T21:54:21.585Z,10.20
2023-01-09T21:56:49.286Z,9.80
2023-01-09T21:59:17.188Z,10.76
2023-01-09T22:01:44.467Z,10.78
2023-01-09T22:04:13.611Z,10.48
2023-01-09T22:06:40.872Z,10.89
2023-01-09T22:09:08.089Z,10.64
2023-01-09T22:11:35.976Z,11.00
2023-01-09T22:14:03.270Z,11.13
2023-01-09T22:16:30.681Z,10.38
2023-01-09T22:18:58.296Z,10.61
2023-01-09T22:21:25.692Z,11.08
2023-01-09T22:23:52.985Z,10.77
2023-01-09T22:26:20.598Z,10.68
2023-01-09T22:28:48.004Z,11.35
2023-01-09T22:31:16.786Z,11.30
2023-01-09T22:33:44.295Z,11.30
2023-01-09T22:36:11.787Z,10.85
2023-01-09T22:38:39.248Z,11.18
2023-01-09T22:41:06.817Z,11.21
2023-01-09T22:43:34.057Z,11.30
2023-01-09T22:46:02.048Z,11.55
2023-01-09T22:48:31.839Z,10.71
2023-01-09T22:51:00.339Z,11.16
2023-01-09T22:53:27.931Z,11.15
2023-01-09T22:55:56.671Z,11.04
2023-01-09T22:58:24.442Z,11.26
2023-01-09T23:00:51.729Z,10.88
2023-01-09T23:03:19.212Z,11.34
2023-01-09T23:05:46.462Z,10.68
2023-01-09T23:08:14.329Z,11.17
2023-01-09T23:10:42.033Z,11.16
2023-01-09T23:13:09.212Z,11.40
2023-01-09T23:15:36.464Z,11.55
2023-01-09T23:18:04.006Z,11.51
2023-01-09T23:20:31.238Z,11.86
2023-01-09T23:22:59.085Z,11.84
2023-01-09T23:25:26.669Z,12.01
2023-01-09T23:27:53.870Z,11.81
2023-01-09T23:30:21.067Z,12.22
2023-01-09T23:32:48.572Z,12.03
2023-01-09T23:35:18.463Z,12.40
2023-01-09T23:37:45.652Z,12.54
2023-01-09T23:40:13.277Z,12.11
2023-01-09T23:42:59.275Z,12.28
2023-01-09T23:45:26.793Z,12.31
2023-01-09T23:47:54.002Z,12.65
2023-01-09T23:50:21.288Z,12.27
2023-01-09T23:52:48.800Z,12.47
2023-01-09T23:55:15.984Z,12.54
2023-01-09T23:57:43.190Z,12.63
